Time;durP1;ratioP1;P1;durP2;ratioP2;P2;SDS_P1;SDS_P2;PMS_P1;PMS_P2;Temp;Humidity;BMP_temperature;BMP_pressure;BME280_temperature;BME280_humidity;BME280_pressure;Samples;Min_cycle;Max_cycle;Signal;HPM_P1;HPM_P2
2022/06/24 00:02:18;;;;;;;10.13;5.53;;;;;;;;;;1650673;87;21040;-67
2022/06/24 00:04:46;;;;;;;11.50;6.15;;;;;;;;;;1678144;85;21112;-67
2022/06/24 00:07:12;;;;;;;9.15;5.50;;;;;;;;;;1678398;85;21075;-67
2022/06/24 00:09:39;;;;;;;6.00;4.10;;;;;;;;;;1676938;85;21046;-67
2022/06/24 00:12:09;;;;;;;7.67;3.90;;;;;;;;;;1678558;85;21060;-67
2022/06/24 00:14:35;;;;;;;6.30;3.98;;;;;;;;;;1678100;84;21001;-67
2022/06/24 00:17:03;;;;;;;5.45;3.90;;;;;;;;;;1672940;85;21088;-67
2022/06/24 00:19:29;;;;;;;5.62;3.55;;;;;;;;;;1661296;85;21014;-67
2022/06/24 00:24:25;;;;;;;4.92;3.22;;;;;;;;;;1811018;78;23438;-68
2022/06/24 00:26:52;;;;;;;6.37;3.67;;;;;;;;;;1792156;79;21356;-68
2022/06/24 00:29:18;;;;;;;5.80;4.05;;;;;;;;;;1784679;80;22105;-68
2022/06/24 00:32:05;;;;;;;5.55;3.50;;;;;;;;;;1787231;80;21079;-68
2022/06/24 00:34:31;;;;;;;4.30;3.50;;;;;;;;;;1793310;79;21024;-69
2022/06/24 00:36:57;;;;;;;7.92;3.95;;;;;;;;;;1792662;80;21060;-68
2022/06/24 00:39:33;;;;;;;5.78;4.78;;;;;;;;;;1792845;80;21021;-69
2022/06/24 00:41:59;;;;;;;6.75;4.17;;;;;;;;;;1761699;81;21112;-69
2022/06/24 00:44:27;;;;;;;8.30;5.08;;;;;;;;;;1789980;79;21599;-69
2022/06/24 00:46:53;;;;;;;8.88;5.62;;;;;;;;;;1771743;80;21087;-69
2022/06/24 00:49:26;;;;;;;9.10;5.33;;;;;;;;;;1753185;81;21204;-69
2022/06/24 00:51:52;;;;;;;10.53;5.83;;;;;;;;;;1761916;81;20972;-69
2022/06/24 00:54:18;;;;;;;9.15;5.62;;;;;;;;;;1783054;79;21003;-69
2022/06/24 00:56:45;;;;;;;8.18;5.25;;;;;;;;;;1792173;79;21008;-69
2022/06/24 00:59:11;;;;;;;8.55;5.90;;;;;;;;;;1792026;79;21063;-67
2022/06/24 01:04:29;;;;;;;7.05;4.75;;;;;;;;;;1732803;79;21146;-68
2022/06/24 01:06:55;;;;;;;6.87;4.62;;;;;;;;;;1737262;82;20991;-67
2022/06/24 01:09:21;;;;;;;8.33;4.62;;;;;;;;;;1737208;82;21070;-67
2022/06/24 01:11:47;;;;;;;7.03;4.90;;;;;;;;;;1705987;84;20989;-67
2022/06/24 01:14:13;;;;;;;6.87;3.83;;;;;;;;;;1705217;84;21523;-67
2022/06/24 01:16:40;;;;;;;6.17;4.08;;;;;;;;;;1747843;81;21067;-67
2022/06/24 01:19:07;;;;;;;6.33;4.97;;;;;;;;;;1734659;81;21011;-67
2022/06/24 01:21:41;;;;;;;6.30;4.28;;;;;;;;;;1737278;82;21495;-67
2022/06/24 01:24:08;;;;;;;6.75;4.15;;;;;;;;;;1737187;81;22145;-68
2022/06/24 01:26:38;;;;;;;5.92;4.58;;;;;;;;;;1722605;83;21068;-68
2022/06/24 01:29:04;;;;;;;7.58;4.70;;;;;;;;;;1763099;81;20951;-67
2022/06/24 01:31:31;;;;;;;7.22;4.55;;;;;;;;;;1707793;84;21115;-67
2022/06/24 01:33:57;;;;;;;6.03;3.77;;;;;;;;;;1678345;84;21084;-67
2022/06/24 01:36:23;;;;;;;5.22;4.20;;;;;;;;;;1683529;84;21023;-68
2022/06/24 01:38:49;;;;;;;7.25;4.60;;;;;;;;;;1724382;83;21119;-68
2022/06/24 01:41:16;;;;;;;6.72;4.72;;;;;;;;;;1762761;81;21054;-68
2022/06/24 01:43:42;;;;;;;8.50;4.95;;;;;;;;;;1762687;81;21070;-67
2022/06/24 01:46:08;;;;;;;8.25;5.53;;;;;;;;;;1754949;81;20979;-67
2022/06/24 01:48:34;;;;;;;8.45;5.05;;;;;;;;;;1760388;81;21075;-67
2022/06/24 01:51:01;;;;;;;6.67;5.05;;;;;;;;;;1737099;81;21038;-68
2022/06/24 01:53:27;;;;;;;6.08;4.72;;;;;;;;;;1761461;81;20991;-68
2022/06/24 01:55:53;;;;;;;6.58;4.87;;;;;;;;;;1760403;81;20980;-67
2022/06/24 01:58:19;;;;;;;7.30;5.10;;;;;;;;;;1752340;81;20987;-68
2022/06/24 02:00:45;;;;;;;5.65;4.30;;;;;;;;;;1755222;81;21043;-67
2022/06/24 02:03:11;;;;;;;8.35;4.67;;;;;;;;;;1766739;80;21662;-67
2022/06/24 02:05:37;;;;;;;6.90;4.40;;;;;;;;;;1793058;79;20992;-68
2022/06/24 02:08:04;;;;;;;9.45;4.97;;;;;;;;;;1789774;79;21025;-67
2022/06/24 02:13:27;;;;;;;5.62;4.05;;;;;;;;;;1769926;81;21040;-67
2022/06/24 02:15:58;;;;;;;5.62;4.10;;;;;;;;;;1765547;80;21046;-68
2022/06/24 02:18:25;;;;;;;6.95;4.50;;;;;;;;;;1747035;81;20995;-68
2022/06/24 02:20:51;;;;;;;6.65;3.87;;;;;;;;;;1765656;81;21115;-67
2022/06/24 02:23:18;;;;;;;6.10;4.08;;;;;;;;;;1769915;81;21159;-67
2022/06/24 02:25:45;;;;;;;4.92;3.92;;;;;;;;;;1769484;81;21486;-67
2022/06/24 02:28:11;;;;;;;4.92;3.65;;;;;;;;;;1770051;81;21015;-67
2022/06/24 02:30:38;;;;;;;6.75;3.40;;;;;;;;;;1769764;81;21059;-68
2022/06/24 02:33:05;;;;;;;6.30;4.03;;;;;;;;;;1767999;81;21011;-67
2022/06/24 02:35:31;;;;;;;4.65;3.20;;;;;;;;;;1769458;81;21016;-67
2022/06/24 02:37:57;;;;;;;6.03;3.77;;;;;;;;;;1772557;80;21041;-67
2022/06/24 02:43:12;;;;;;;4.75;3.52;;;;;;;;;;1763493;80;21540;-67
2022/06/24 02:45:39;;;;;;;6.22;3.55;;;;;;;;;;1740689;81;21103;-67
2022/06/24 02:48:06;;;;;;;3.90;3.22;;;;;;;;;;1746321;82;21016;-67
2022/06/24 02:50:34;;;;;;;4.92;3.30;;;;;;;;;;1741480;82;21067;-67
2022/06/24 02:53:00;;;;;;;4.87;3.45;;;;;;;;;;1746475;82;21064;-66
2022/06/24 02:55:26;;;;;;;5.47;3.25;;;;;;;;;;1767255;81;21099;-67
2022/06/24 02:57:52;;;;;;;7.25;3.42;;;;;;;;;;1760166;81;21056;-67
2022/06/24 03:00:19;;;;;;;5.70;3.40;;;;;;;;;;1769591;81;21048;-67
2022/06/24 03:02:45;;;;;;;5.33;3.02;;;;;;;;;;1745784;81;21479;-67
2022/06/24 03:05:11;;;;;;;7.47;3.55;;;;;;;;;;1705540;84;21006;-67
2022/06/24 03:07:37;;;;;;;5.00;2.80;;;;;;;;;;1736270;81;21580;-67
2022/06/24 03:10:04;;;;;;;3.98;3.12;;;;;;;;;;1737061;81;21016;-67
2022/06/24 03:12:30;;;;;;;5.20;3.60;;;;;;;;;;1757752;81;21000;-67
2022/06/24 03:14:56;;;;;;;4.67;3.22;;;;;;;;;;1741909;81;21076;-67
2022/06/24 03:17:23;;;;;;;4.25;3.22;;;;;;;;;;1706041;83;21113;-67
2022/06/24 03:19:49;;;;;;;4.42;3.50;;;;;;;;;;1728535;83;21045;-67
2022/06/24 03:22:15;;;;;;;6.92;3.87;;;;;;;;;;1732314;82;21035;-67
2022/06/24 03:24:42;;;;;;;4.55;3.12;;;;;;;;;;1754210;80;21041;-69
2022/06/24 03:27:08;;;;;;;3.75;3.00;;;;;;;;;;1767144;81;22087;-69
2022/06/24 03:29:34;;;;;;;6.55;3.47;;;;;;;;;;1763600;80;21051;-68
2022/06/24 03:32:00;;;;;;;3.50;2.90;;;;;;;;;;1770359;80;21024;-68
2022/06/24 03:34:26;;;;;;;4.37;3.02;;;;;;;;;;1776132;80;21067;-68
2022/06/24 03:36:52;;;;;;;5.30;3.12;;;;;;;;;;1733551;83;21044;-68
2022/06/24 03:39:18;;;;;;;4.42;3.10;;;;;;;;;;1707339;83;21085;-68
2022/06/24 03:41:44;;;;;;;4.67;3.27;;;;;;;;;;1746975;80;21555;-70
2022/06/24 03:44:10;;;;;;;5.22;3.30;;;;;;;;;;1745066;80;21020;-69
2022/06/24 03:46:36;;;;;;;4.97;3.33;;;;;;;;;;1779207;80;21555;-67
2022/06/24 03:49:02;;;;;;;4.03;3.00;;;;;;;;;;1766921;81;21019;-69
2022/06/24 03:51:28;;;;;;;3.80;3.10;;;;;;;;;;1765506;80;21036;-69
2022/06/24 03:53:54;;;;;;;4.90;2.95;;;;;;;;;;1778805;80;21029;-68
2022/06/24 03:56:20;;;;;;;4.65;2.58;;;;;;;;;;1780201;80;21093;-69
2022/06/24 03:58:47;;;;;;;5.62;2.90;;;;;;;;;;1766791;80;21032;-69
2022/06/24 04:01:13;;;;;;;3.47;2.85;;;;;;;;;;1710048;83;21238;-69
2022/06/24 04:03:39;;;;;;;5.15;2.98;;;;;;;;;;1746032;80;21605;-68
2022/06/24 04:06:06;;;;;;;6.85;3.20;;;;;;;;;;1758184;81;21610;-68
2022/06/24 04:08:34;;;;;;;4.90;2.72;;;;;;;;;;1765091;81;21689;-69
2022/06/24 04:11:02;;;;;;;7.03;3.20;;;;;;;;;;1735209;80;21028;-69
2022/06/24 04:13:28;;;;;;;5.20;2.80;;;;;;;;;;1727403;82;21578;-69
2022/06/24 04:15:55;;;;;;;3.70;2.92;;;;;;;;;;1756064;81;21496;-69
2022/06/24 04:18:21;;;;;;;4.30;3.10;;;;;;;;;;1742277;81;21060;-69
2022/06/24 04:20:47;;;;;;;4.28;2.95;;;;;;;;;;1760146;81;21031;-68
2022/06/24 04:23:13;;;;;;;4.00;2.95;;;;;;;;;;1765238;80;21507;-67
2022/06/24 04:25:39;;;;;;;3.67;3.08;;;;;;;;;;1747819;82;21468;-68
2022/06/24 04:28:05;;;;;;;4.95;2.70;;;;;;;;;;1767089;81;21042;-66
2022/06/24 04:30:32;;;;;;;5.30;3.15;;;;;;;;;;1747974;82;21072;-67
2022/06/24 04:32:58;;;;;;;7.78;3.15;;;;;;;;;;1747704;81;21046;-67
2022/06/24 04:35:24;;;;;;;4.10;3.12;;;;;;;;;;1766073;81;21103;-67
2022/06/24 04:37:50;;;;;;;3.62;2.52;;;;;;;;;;1766874;81;20999;-67
2022/06/24 04:40:16;;;;;;;4.83;3.30;;;;;;;;;;1766793;81;21047;-67
2022/06/24 04:42:44;;;;;;;4.70;2.80;;;;;;;;;;1766556;81;21534;-67
2022/06/24 04:45:10;;;;;;;5.55;3.40;;;;;;;;;;1764748;81;21079;-67
2022/06/24 04:47:37;;;;;;;3.83;2.80;;;;;;;;;;1766933;81;21062;-67
2022/06/24 04:50:04;;;;;;;6.15;3.30;;;;;;;;;;1762819;81;21020;-66
2022/06/24 04:52:31;;;;;;;4.75;2.90;;;;;;;;;;1766941;80;21023;-68
2022/06/24 04:54:57;;;;;;;4.83;2.83;;;;;;;;;;1769126;80;20999;-67
2022/06/24 04:57:23;;;;;;;4.08;2.80;;;;;;;;;;1752257;81;21544;-68
2022/06/24 04:59:49;;;;;;;4.25;3.12;;;;;;;;;;1767719;80;20950;-68
2022/06/24 05:02:15;;;;;;;6.00;2.90;;;;;;;;;;1760082;80;21075;-68
2022/06/24 05:04:41;;;;;;;3.67;2.77;;;;;;;;;;1766703;80;21637;-68
2022/06/24 05:07:07;;;;;;;3.87;2.90;;;;;;;;;;1766367;81;21003;-68
2022/06/24 05:09:34;;;;;;;3.45;3.15;;;;;;;;;;1762778;80;21032;-68
2022/06/24 05:12:02;;;;;;;3.10;2.67;;;;;;;;;;1758452;81;21575;-68
2022/06/24 05:14:28;;;;;;;5.17;2.95;;;;;;;;;;1735184;81;21613;-67
2022/06/24 05:16:55;;;;;;;3.50;2.65;;;;;;;;;;1786443;80;21025;-67
2022/06/24 05:19:21;;;;;;;3.33;2.77;;;;;;;;;;1764962;80;21032;-68
2022/06/24 05:21:47;;;;;;;5.17;2.85;;;;;;;;;;1763627;80;21476;-68
2022/06/24 05:24:13;;;;;;;5.95;3.02;;;;;;;;;;1773405;80;21023;-68
2022/06/24 05:26:43;;;;;;;3.92;3.40;;;;;;;;;;1767053;80;21039;-68
2022/06/24 05:29:09;;;;;;;3.95;2.75;;;;;;;;;;1742236;81;20968;-68
2022/06/24 05:31:35;;;;;;;5.53;3.12;;;;;;;;;;1724127;82;21515;-68
2022/06/24 05:34:01;;;;;;;6.40;3.10;;;;;;;;;;1752501;81;21010;-68
2022/06/24 05:36:27;;;;;;;3.65;2.95;;;;;;;;;;1754212;81;21133;-67
2022/06/24 05:38:53;;;;;;;6.33;3.22;;;;;;;;;;1732455;81;21023;-68
2022/06/24 05:41:19;;;;;;;4.87;2.75;;;;;;;;;;1765687;81;21529;-68
2022/06/24 05:43:45;;;;;;;4.37;3.10;;;;;;;;;;1736308;83;21070;-69
2022/06/24 05:46:11;;;;;;;8.38;3.45;;;;;;;;;;1736850;82;21573;-68
2022/06/24 05:48:37;;;;;;;4.17;2.90;;;;;;;;;;1732760;81;21072;-68
2022/06/24 05:51:07;;;;;;;3.83;2.90;;;;;;;;;;1752352;81;21076;-66
2022/06/24 05:56:19;;;;;;;6.92;3.12;;;;;;;;;;1764471;80;21016;-67
2022/06/24 05:58:45;;;;;;;4.25;3.00;;;;;;;;;;1788568;78;21035;-67
2022/06/24 06:01:11;;;;;;;3.85;2.95;;;;;;;;;;1791421;78;21032;-68
2022/06/24 06:03:37;;;;;;;5.08;2.90;;;;;;;;;;1791288;79;21586;-68
2022/06/24 06:06:04;;;;;;;5.87;3.02;;;;;;;;;;1792039;80;21064;-68
2022/06/24 06:08:30;;;;;;;4.60;2.83;;;;;;;;;;1774993;78;21027;-68
2022/06/24 06:10:56;;;;;;;4.05;3.02;;;;;;;;;;1785693;80;21063;-67
2022/06/24 06:13:23;;;;;;;5.28;3.08;;;;;;;;;;1775492;80;21019;-69
2022/06/24 06:15:50;;;;;;;3.52;2.80;;;;;;;;;;1791017;78;21528;-67
2022/06/24 06:18:16;;;;;;;4.22;3.20;;;;;;;;;;1789030;78;20992;-67
2022/06/24 06:20:42;;;;;;;4.85;2.90;;;;;;;;;;1789866;78;21011;-67
2022/06/24 06:23:08;;;;;;;3.62;3.08;;;;;;;;;;1787624;80;21043;-68
2022/06/24 06:25:34;;;;;;;5.03;3.22;;;;;;;;;;1778021;80;20977;-68
2022/06/24 06:28:01;;;;;;;4.83;3.30;;;;;;;;;;1762026;80;21106;-68
2022/06/24 06:30:30;;;;;;;7.00;4.08;;;;;;;;;;1785921;79;21040;-68
2022/06/24 06:32:56;;;;;;;5.65;3.52;;;;;;;;;;1773301;80;21052;-68
2022/06/24 06:35:22;;;;;;;8.00;3.27;;;;;;;;;;1786001;80;21592;-67
2022/06/24 06:37:48;;;;;;;6.30;3.40;;;;;;;;;;1798406;78;21052;-68
2022/06/24 06:40:14;;;;;;;5.28;3.58;;;;;;;;;;1774268;80;21302;-68
2022/06/24 06:42:40;;;;;;;11.28;3.58;;;;;;;;;;1798858;78;21306;-68
2022/06/24 06:45:06;;;;;;;5.45;3.60;;;;;;;;;;1816985;78;21044;-68
2022/06/24 06:47:32;;;;;;;5.75;3.27;;;;;;;;;;1790594;78;21048;-68
2022/06/24 06:49:58;;;;;;;6.80;3.58;;;;;;;;;;1799897;78;21584;-67
2022/06/24 06:52:25;;;;;;;8.05;3.47;;;;;;;;;;1793039;80;21049;-67
2022/06/24 06:54:50;;;;;;;9.78;3.55;;;;;;;;;;1780134;80;21035;-69
2022/06/24 06:57:16;;;;;;;23.85;20.92;;;;;;;;;;1776127;78;21036;-68
2022/06/24 06:59:42;;;;;;;32.88;24.00;;;;;;;;;;1789642;78;21016;-69
2022/06/24 07:02:09;;;;;;;16.85;14.28;;;;;;;;;;1818414;78;21052;-67
2022/06/24 07:04:35;;;;;;;8.73;4.28;;;;;;;;;;1815532;78;21091;-69
2022/06/24 07:07:02;;;;;;;6.45;3.42;;;;;;;;;;1781312;78;21449;-69
2022/06/24 07:09:28;;;;;;;8.05;3.35;;;;;;;;;;1792232;78;21048;-69
2022/06/24 07:11:54;;;;;;;11.80;3.75;;;;;;;;;;1780599;78;21460;-80
2022/06/24 07:14:20;;;;;;;15.03;4.20;;;;;;;;;;1818390;78;20976;-73
2022/06/24 07:16:46;;;;;;;11.40;4.10;;;;;;;;;;1789436;78;21059;-77
2022/06/24 07:19:12;;;;;;;7.05;3.60;;;;;;;;;;1783245;78;21083;-78
2022/06/24 07:21:39;;;;;;;7.70;3.55;;;;;;;;;;1793811;80;21571;-77
2022/06/24 07:24:05;;;;;;;7.62;3.30;;;;;;;;;;1793849;80;21623;-81
2022/06/24 07:26:31;;;;;;;6.42;3.17;;;;;;;;;;1773281;78;21507;-75
2022/06/24 07:28:57;;;;;;;5.28;3.40;;;;;;;;;;1782531;78;21009;-79
2022/06/24 07:31:23;;;;;;;8.63;3.52;;;;;;;;;;1787712;78;21000;-81
2022/06/24 07:33:50;;;;;;;6.78;3.30;;;;;;;;;;1776530;78;21048;-80
2022/06/24 07:36:16;;;;;;;12.28;4.42;;;;;;;;;;1787975;78;21563;-75
2022/06/24 07:38:42;;;;;;;5.58;3.20;;;;;;;;;;1788675;78;20968;-76
2022/06/24 07:41:09;;;;;;;6.60;3.52;;;;;;;;;;1795739;78;21070;-73
2022/06/24 07:43:38;;;;;;;9.30;3.70;;;;;;;;;;1813404;78;21059;-77
2022/06/24 07:46:08;;;;;;;6.53;3.47;;;;;;;;;;1826140;78;21043;-70
2022/06/24 07:48:32;;;;;;;4.70;3.70;;;;;;;;;;1794656;78;21056;-69
2022/06/24 07:51:00;;;;;;;4.97;3.70;;;;;;;;;;1784138;80;21305;-71
2022/06/24 07:53:27;;;;;;;5.60;3.27;;;;;;;;;;1784323;78;21061;-72
2022/06/24 07:58:38;;;;;;;7.35;3.00;;;;;;;;;;1790119;78;21008;-69
2022/06/24 08:01:04;;;;;;;6.53;3.90;;;;;;;;;;1793272;79;20992;-70
2022/06/24 08:03:30;;;;;;;10.53;8.15;;;;;;;;;;1795982;78;21586;-69
2022/06/24 08:05:57;;;;;;;10.55;8.15;;;;;;;;;;1817765;78;21095;-70
2022/06/24 08:08:23;;;;;;;6.92;4.12;;;;;;;;;;1789081;78;20985;-70
2022/06/24 08:10:49;;;;;;;8.23;3.75;;;;;;;;;;1795101;78;20985;-68
2022/06/24 08:13:15;;;;;;;9.75;4.33;;;;;;;;;;1826257;78;21012;-69
2022/06/24 08:15:42;;;;;;;6.62;3.85;;;;;;;;;;1825871;78;21015;-68
2022/06/24 08:18:10;;;;;;;5.62;4.40;;;;;;;;;;1797872;78;20987;-73
2022/06/24 08:20:36;;;;;;;12.15;6.65;;;;;;;;;;1786743;78;20965;-72
2022/06/24 08:23:02;;;;;;;13.30;6.30;;;;;;;;;;1776767;78;21075;-72
2022/06/24 08:25:29;;;;;;;6.60;4.03;;;;;;;;;;1798162;78;20984;-72
2022/06/24 08:27:55;;;;;;;9.35;3.70;;;;;;;;;;1791698;80;21068;-72
2022/06/24 08:30:21;;;;;;;10.13;4.30;;;;;;;;;;1794068;80;20969;-72
2022/06/24 08:32:47;;;;;;;10.35;4.10;;;;;;;;;;1794166;80;21590;-72
2022/06/24 08:35:13;;;;;;;11.03;4.22;;;;;;;;;;1793295;79;20972;-71
2022/06/24 08:37:38;;;;;;;7.83;3.80;;;;;;;;;;1793925;80;21517;-72
2022/06/24 08:40:05;;;;;;;4.62;3.55;;;;;;;;;;1793960;80;21067;-72
2022/06/24 08:42:31;;;;;;;5.90;3.65;;;;;;;;;;1767230;81;20973;-73
2022/06/24 08:44:59;;;;;;;6.45;3.42;;;;;;;;;;1764111;80;20976;-75
2022/06/24 08:47:25;;;;;;;6.28;3.80;;;;;;;;;;1776193;80;21059;-71
2022/06/24 08:49:51;;;;;;;4.20;3.27;;;;;;;;;;1773500;80;20977;-71
2022/06/24 08:52:17;;;;;;;5.28;3.80;;;;;;;;;;1768708;80;21484;-72
2022/06/24 08:54:43;;;;;;;7.53;3.55;;;;;;;;;;1705826;83;21514;-73
2022/06/24 08:57:11;;;;;;;7.40;3.67;;;;;;;;;;1732044;81;21115;-71
2022/06/24 08:59:37;;;;;;;5.75;3.65;;;;;;;;;;1764332;80;21047;-69
2022/06/24 09:02:03;;;;;;;5.35;3.58;;;;;;;;;;1757903;80;21032;-69
2022/06/24 09:04:32;;;;;;;4.45;3.30;;;;;;;;;;1747140;81;21123;-68
2022/06/24 09:06:58;;;;;;;5.03;3.65;;;;;;;;;;1755116;80;21049;-68
2022/06/24 09:09:26;;;;;;;6.90;3.40;;;;;;;;;;1758407;81;21021;-68
2022/06/24 09:11:54;;;;;;;5.33;3.55;;;;;;;;;;1755634;81;21068;-68
2022/06/24 09:14:20;;;;;;;4.60;3.70;;;;;;;;;;1744533;81;21017;-79
2022/06/24 09:16:46;;;;;;;11.10;7.78;;;;;;;;;;1758654;81;21558;-73
2022/06/24 09:19:14;;;;;;;8.05;6.40;;;;;;;;;;1725521;81;21103;-73
2022/06/24 09:21:41;;;;;;;6.58;3.92;;;;;;;;;;1748150;81;21531;-69
2022/06/24 09:24:08;;;;;;;5.83;3.83;;;;;;;;;;1725880;81;21127;-72
2022/06/24 09:26:38;;;;;;;4.58;3.47;;;;;;;;;;1734258;81;21055;-78
2022/06/24 09:29:05;;;;;;;5.47;3.55;;;;;;;;;;1739633;81;21107;-73
2022/06/24 09:31:31;;;;;;;4.90;3.75;;;;;;;;;;1731809;82;21012;-72
2022/06/24 09:34:17;;;;;;;5.30;3.85;;;;;;;;;;1717289;83;21032;-72
2022/06/24 09:36:45;;;;;;;5.85;3.80;;;;;;;;;;1753944;80;21071;-72
2022/06/24 09:39:12;;;;;;;4.58;3.77;;;;;;;;;;1757002;81;20988;-73
2022/06/24 09:41:46;;;;;;;5.58;3.58;;;;;;;;;;1734149;81;21048;-73
2022/06/24 09:44:12;;;;;;;5.05;3.77;;;;;;;;;;1753261;81;21017;-72
2022/06/24 09:46:39;;;;;;;5.22;3.37;;;;;;;;;;1753711;80;21060;-68
2022/06/24 09:49:07;;;;;;;8.58;3.92;;;;;;;;;;1756962;81;21047;-69
2022/06/24 09:51:33;;;;;;;6.45;3.70;;;;;;;;;;1757942;81;21479;-68
2022/06/24 09:53:59;;;;;;;6.28;3.50;;;;;;;;;;1756816;81;21494;-70
2022/06/24 09:56:25;;;;;;;6.67;3.45;;;;;;;;;;1760810;81;21033;-73
2022/06/24 10:01:36;;;;;;;7.37;3.72;;;;;;;;;;1707174;83;21092;-73
2022/06/24 10:04:03;;;;;;;4.53;3.27;;;;;;;;;;1726963;82;21150;-73
2022/06/24 10:06:29;;;;;;;5.00;3.52;;;;;;;;;;1771458;80;21018;-73
2022/06/24 10:08:56;;;;;;;5.25;3.90;;;;;;;;;;1760091;80;20992;-73
2022/06/24 10:11:22;;;;;;;4.37;3.30;;;;;;;;;;1730294;80;21597;-73
2022/06/24 10:13:49;;;;;;;5.62;3.50;;;;;;;;;;1756084;80;21029;-75
2022/06/24 10:16:15;;;;;;;4.80;3.10;;;;;;;;;;1745819;80;21024;-75
2022/06/24 10:18:43;;;;;;;4.80;3.50;;;;;;;;;;1757999;81;20993;-75
2022/06/24 10:21:10;;;;;;;5.12;3.45;;;;;;;;;;1738431;81;21079;-76
2022/06/24 10:23:39;;;;;;;7.08;3.50;;;;;;;;;;1740293;81;21031;-73
2022/06/24 10:26:27;;;;;;;4.97;3.40;;;;;;;;;;1761350;81;21562;-77
2022/06/24 10:29:04;;;;;;;4.25;3.47;;;;;;;;;;1759434;81;21015;-75
2022/06/24 10:31:44;;;;;;;6.55;3.77;;;;;;;;;;1761032;81;20985;-76
2022/06/24 10:34:10;;;;;;;6.12;3.30;;;;;;;;;;1750405;81;21535;-75
2022/06/24 10:36:36;;;;;;;8.18;3.95;;;;;;;;;;1767688;80;21472;-77
2022/06/24 10:39:09;;;;;;;6.65;3.67;;;;;;;;;;1741242;81;21021;-76
2022/06/24 10:41:37;;;;;;;5.67;3.40;;;;;;;;;;1738278;81;21001;-76
2022/06/24 10:44:20;;;;;;;7.15;3.65;;;;;;;;;;1748426;82;21031;-78
2022/06/24 10:46:47;;;;;;;5.08;3.37;;;;;;;;;;1733376;82;21079;-78
2022/06/24 10:49:13;;;;;;;4.62;3.60;;;;;;;;;;1745298;82;21428;-79
2022/06/24 10:51:39;;;;;;;4.50;3.45;;;;;;;;;;1748188;81;21040;-72
2022/06/24 10:54:09;;;;;;;5.45;3.35;;;;;;;;;;1759810;80;21500;-71
2022/06/24 10:56:45;;;;;;;5.08;3.60;;;;;;;;;;1784012;80;21021;-70
2022/06/24 10:59:12;;;;;;;4.83;3.90;;;;;;;;;;1772501;80;21384;-70
2022/06/24 11:01:40;;;;;;;6.40;3.60;;;;;;;;;;1759218;81;21012;-71
2022/06/24 11:04:06;;;;;;;4.47;3.22;;;;;;;;;;1756001;80;20990;-71
2022/06/24 11:06:32;;;;;;;4.60;3.52;;;;;;;;;;1780184;80;21005;-71
2022/06/24 11:09:06;;;;;;;6.95;3.42;;;;;;;;;;1755141;80;21013;-75
2022/06/24 11:11:34;;;;;;;36.13;32.25;;;;;;;;;;1754442;80;21056;-77
2022/06/24 11:14:00;;;;;;;22.95;20.20;;;;;;;;;;1750264;80;21195;-76
2022/06/24 11:16:27;;;;;;;7.17;5.10;;;;;;;;;;1759742;81;21015;-77
2022/06/24 11:18:53;;;;;;;5.00;3.60;;;;;;;;;;1761414;81;21039;-83
2022/06/24 11:21:20;;;;;;;4.67;3.45;;;;;;;;;;1754942;80;20957;-82
2022/06/24 11:23:47;;;;;;;3.98;3.12;;;;;;;;;;1769456;80;21108;-81
2022/06/24 11:26:14;;;;;;;7.45;3.50;;;;;;;;;;1753702;80;21048;-80
2022/06/24 11:28:42;;;;;;;4.12;3.17;;;;;;;;;;1754538;81;21063;-78
2022/06/24 11:31:16;;;;;;;4.55;3.50;;;;;;;;;;1758138;81;21018;-82
2022/06/24 11:33:43;;;;;;;6.12;3.37;;;;;;;;;;1759455;80;21020;-81
2022/06/24 11:36:09;;;;;;;10.35;3.60;;;;;;;;;;1747597;81;21590;-82
2022/06/24 11:38:54;;;;;;;5.15;3.35;;;;;;;;;;1760570;81;21119;-82
2022/06/24 11:41:27;;;;;;;5.35;3.40;;;;;;;;;;1738898;82;21587;-82
2022/06/24 11:43:53;;;;;;;4.35;3.15;;;;;;;;;;1731183;83;21040;-78
2022/06/24 11:46:19;;;;;;;4.35;3.37;;;;;;;;;;1708726;82;21068;-81
2022/06/24 11:48:45;;;;;;;4.28;3.30;;;;;;;;;;1734775;81;21080;-77
2022/06/24 11:51:19;;;;;;;6.03;3.42;;;;;;;;;;1758746;81;22267;-79
2022/06/24 11:53:57;;;;;;;3.67;2.92;;;;;;;;;;1757731;81;21528;-80
2022/06/24 11:56:28;;;;;;;5.47;3.10;;;;;;;;;;1760393;81;21044;-81
2022/06/24 11:58:55;;;;;;;4.60;3.20;;;;;;;;;;1751310;80;21036;-79
2022/06/24 12:01:22;;;;;;;5.80;3.35;;;;;;;;;;1752324;81;21015;-84
2022/06/24 12:03:50;;;;;;;4.42;3.35;;;;;;;;;;1730759;82;21083;-84
2022/06/24 12:06:17;;;;;;;4.42;3.25;;;;;;;;;;1746535;80;21048;-81
2022/06/24 12:08:44;;;;;;;5.00;3.20;;;;;;;;;;1762904;80;21015;-82
2022/06/24 12:11:14;;;;;;;6.65;3.40;;;;;;;;;;1777778;80;21024;-79
2022/06/24 12:13:40;;;;;;;7.50;3.30;;;;;;;;;;1736573;83;21121;-77
2022/06/24 12:16:07;;;;;;;5.45;3.35;;;;;;;;;;1765244;80;21110;-79
2022/06/24 12:18:34;;;;;;;4.92;3.45;;;;;;;;;;1747202;81;21040;-77
2022/06/24 12:21:03;;;;;;;4.50;3.40;;;;;;;;;;1741850;80;21009;-79
2022/06/24 12:23:38;;;;;;;4.60;2.90;;;;;;;;;;1749031;81;21076;-80
2022/06/24 12:26:06;;;;;;;4.90;3.25;;;;;;;;;;1781635;79;21036;-74
2022/06/24 12:28:32;;;;;;;11.73;9.15;;;;;;;;;;1776145;78;21068;-79
2022/06/24 12:31:05;;;;;;;10.32;7.37;;;;;;;;;;1771640;80;21063;-77
2022/06/24 12:33:32;;;;;;;4.83;3.90;;;;;;;;;;1793986;78;21035;-78
2022/06/24 12:36:03;;;;;;;5.95;3.40;;;;;;;;;;1796441;78;21519;-82
2022/06/24 12:41:27;;;;;;;5.08;3.50;;;;;;;;;;1867871;75;23418;-82
2022/06/24 12:43:52;;;;;;;5.70;3.17;;;;;;;;;;1844053;78;21087;-79
2022/06/24 12:46:23;;;;;;;7.50;3.52;;;;;;;;;;1823208;77;21035;-79
2022/06/24 12:51:41;;;;;;;6.50;4.90;;;;;;;;;;1836838;77;21007;-78
2022/06/24 12:54:08;;;;;;;4.60;3.70;;;;;;;;;;1831159;77;21558;-83
2022/06/24 12:56:35;;;;;;;5.72;3.50;;;;;;;;;;1820313;78;21535;-68
2022/06/24 12:59:02;;;;;;;5.08;2.98;;;;;;;;;;1825533;77;20993;-81
2022/06/24 13:01:28;;;;;;;4.42;3.20;;;;;;;;;;1820294;77;21135;-76
2022/06/24 13:03:54;;;;;;;5.78;3.30;;;;;;;;;;1814907;78;21001;-79
2022/06/24 13:06:21;;;;;;;6.40;3.58;;;;;;;;;;1770117;79;21043;-78
2022/06/24 13:08:47;;;;;;;7.03;3.40;;;;;;;;;;1765888;80;21550;-78
2022/06/24 13:11:13;;;;;;;4.50;3.02;;;;;;;;;;1765141;81;21007;-78
2022/06/24 13:13:39;;;;;;;5.78;3.10;;;;;;;;;;1766987;81;21013;-79
2022/06/24 13:16:06;;;;;;;4.00;3.17;;;;;;;;;;1741727;81;21026;-82
2022/06/24 13:18:33;;;;;;;8.83;3.72;;;;;;;;;;1728407;81;21045;-83
2022/06/24 13:20:59;;;;;;;4.70;3.52;;;;;;;;;;1745141;81;21030;-77
2022/06/24 13:23:25;;;;;;;5.83;3.30;;;;;;;;;;1782062;80;21051;-78
2022/06/24 13:25:51;;;;;;;4.72;3.67;;;;;;;;;;1817476;78;22161;-78
2022/06/24 13:28:17;;;;;;;5.28;3.25;;;;;;;;;;1786391;78;21059;-77
2022/06/24 13:30:44;;;;;;;4.05;3.37;;;;;;;;;;1811461;79;20985;-77
2022/06/24 13:33:12;;;;;;;4.60;3.10;;;;;;;;;;1792164;79;21638;-77
2022/06/24 13:35:38;;;;;;;5.78;3.85;;;;;;;;;;1800485;78;21012;-80
2022/06/24 13:38:04;;;;;;;5.72;3.62;;;;;;;;;;1806911;78;21527;-77
2022/06/24 13:40:31;;;;;;;4.85;3.42;;;;;;;;;;1796981;78;21044;-76
2022/06/24 13:42:57;;;;;;;7.35;3.62;;;;;;;;;;1792568;80;21072;-76
2022/06/24 13:45:24;;;;;;;4.47;3.33;;;;;;;;;;1792017;77;20986;-74
2022/06/24 13:47:50;;;;;;;4.75;3.50;;;;;;;;;;1748785;79;21099;-74
2022/06/24 13:50:16;;;;;;;7.42;4.17;;;;;;;;;;1770153;79;21092;-74
2022/06/24 13:52:42;;;;;;;5.78;3.95;;;;;;;;;;1713265;81;21072;-73
2022/06/24 13:55:08;;;;;;;4.17;3.10;;;;;;;;;;1766625;79;21075;-74
2022/06/24 13:57:35;;;;;;;6.08;3.70;;;;;;;;;;1820467;78;21560;-76
2022/06/24 14:00:03;;;;;;;5.22;4.03;;;;;;;;;;1798789;78;21032;-75
2022/06/24 14:02:33;;;;;;;4.62;3.00;;;;;;;;;;1814461;79;21104;-77
2022/06/24 14:04:59;;;;;;;4.58;3.30;;;;;;;;;;1778650;81;21091;-76
2022/06/24 14:07:25;;;;;;;7.65;3.58;;;;;;;;;;1777537;79;21016;-73
2022/06/24 14:09:51;;;;;;;5.72;3.40;;;;;;;;;;1738565;81;20949;-76
2022/06/24 14:12:17;;;;;;;4.22;3.35;;;;;;;;;;1743025;81;21005;-71
2022/06/24 14:14:43;;;;;;;7.65;3.62;;;;;;;;;;1742734;81;21451;-73
2022/06/24 14:17:10;;;;;;;8.13;3.60;;;;;;;;;;1734629;81;21032;-72
2022/06/24 14:19:37;;;;;;;5.90;3.72;;;;;;;;;;1774480;79;21350;-73
2022/06/24 14:22:03;;;;;;;5.53;3.80;;;;;;;;;;1771979;79;21019;-71
2022/06/24 14:24:33;;;;;;;4.60;4.17;;;;;;;;;;1748435;82;21084;-71
2022/06/24 14:26:59;;;;;;;12.95;10.45;;;;;;;;;;1755470;81;21572;-72
2022/06/24 14:29:25;;;;;;;23.95;17.48;;;;;;;;;;1734713;81;21058;-72
2022/06/24 14:31:52;;;;;;;7.10;4.78;;;;;;;;;;1749281;79;21068;-73
2022/06/24 14:34:18;;;;;;;4.95;3.20;;;;;;;;;;1744729;81;20988;-72
2022/06/24 14:36:44;;;;;;;3.90;3.35;;;;;;;;;;1738945;82;21550;-72
2022/06/24 14:41:54;;;;;;;4.50;3.10;;;;;;;;;;1764938;80;21008;-72
2022/06/24 14:44:21;;;;;;;4.87;3.30;;;;;;;;;;1760773;80;21041;-72
2022/06/24 14:46:47;;;;;;;3.75;3.05;;;;;;;;;;1769884;81;21071;-72
2022/06/24 14:49:14;;;;;;;5.67;3.40;;;;;;;;;;1732675;82;21061;-72
2022/06/24 14:51:41;;;;;;;5.55;3.40;;;;;;;;;;1741629;81;21000;-70
2022/06/24 14:54:07;;;;;;;4.05;3.30;;;;;;;;;;1753898;81;21076;-70
2022/06/24 14:56:33;;;;;;;7.53;3.62;;;;;;;;;;1801340;79;21057;-73
2022/06/24 14:59:00;;;;;;;4.30;3.22;;;;;;;;;;1738932;81;21061;-71
2022/06/24 15:01:26;;;;;;;4.53;3.10;;;;;;;;;;1727377;82;21128;-72
2022/06/24 15:03:55;;;;;;;4.67;3.30;;;;;;;;;;1804746;78;20993;-72
2022/06/24 15:06:21;;;;;;;5.90;3.40;;;;;;;;;;1806771;79;21469;-73
2022/06/24 15:08:47;;;;;;;5.40;3.05;;;;;;;;;;1808819;78;20974;-71